createdAt,value
2017-08-20T00:00:50.825Z,13.65
2017-08-20T00:02:03.143Z,13.68
2017-08-20T00:03:15.458Z,13.67
2017-08-20T00:04:27.473Z,13.58
2017-08-20T00:05:39.744Z,13.55
2017-08-20T00:06:52.024Z,13.57
2017-08-20T00:08:04.559Z,13.58
2017-08-20T00:09:17.166Z,13.5
2017-08-20T00:10:29.775Z,13.49
2017-08-20T00:11:42.059Z,13.5
2017-08-20T00:12:54.680Z,13.52
2017-08-20T00:14:07.323Z,13.49
2017-08-20T00:15:19.551Z,13.45
2017-08-20T00:16:32.163Z,13.45
2017-08-20T00:17:44.135Z,13.43
2017-08-20T00:18:56.755Z,13.42
2017-08-20T00:20:08.706Z,13.4
2017-08-20T00:21:21.276Z,13.4
2017-08-20T00:22:33.893Z,13.33
2017-08-20T00:23:45.847Z,13.33
2017-08-20T00:24:58.192Z,13.3
2017-08-20T00:26:10.204Z,13.3
2017-08-20T00:27:22.846Z,13.24
2017-08-20T00:28:35.423Z,13.24
2017-08-20T00:29:47.381Z,13.27
2017-08-20T00:30:59.351Z,13.21
2017-08-20T00:32:11.986Z,13.24
2017-08-20T00:33:24.625Z,13.26
2017-08-20T00:34:37.255Z,13.21
2017-08-20T00:35:49.858Z,13.12
2017-08-20T00:37:02.130Z,13.16
2017-08-20T00:38:14.715Z,13.21
2017-08-20T00:39:27.026Z,13.11
2017-08-20T00:40:39.625Z,13.08
2017-08-20T00:41:51.644Z,13.13
2017-08-20T00:43:03.966Z,13.02
2017-08-20T00:44:16.568Z,13.01
2017-08-20T00:45:29.123Z,13.08
2017-08-20T00:46:41.147Z,13.02
2017-08-20T00:47:53.199Z,13.03
2017-08-20T00:49:05.772Z,13.01
2017-08-20T00:50:18.363Z,12.98
2017-08-20T00:51:30.638Z,12.94
2017-08-20T00:52:42.687Z,12.99
2017-08-20T00:53:55.005Z,12.94
2017-08-20T00:55:07.246Z,12.98
2017-08-20T00:56:19.817Z,12.93
2017-08-20T00:57:32.392Z,12.98
2017-08-20T00:58:44.917Z,12.93
2017-08-20T00:59:57.182Z,12.86
2017-08-20T01:01:09.818Z,12.87
2017-08-20T01:02:22.074Z,12.83
2017-08-20T01:03:34.657Z,12.9
2017-08-20T01:04:46.936Z,12.83
2017-08-20T01:05:59.255Z,12.86
2017-08-20T01:07:11.828Z,12.83
2017-08-20T01:08:24.465Z,12.86
2017-08-20T01:09:37.080Z,12.76
2017-08-20T01:10:49.700Z,12.8
2017-08-20T01:12:02.164Z,12.72
2017-08-20T01:13:14.704Z,12.76
2017-08-20T01:14:27.313Z,12.73
2017-08-20T01:15:39.848Z,12.76
2017-08-20T01:16:52.410Z,12.8
2017-08-20T01:18:03.775Z,12.75
2017-08-20T01:19:16.388Z,12.73
2017-08-20T01:20:28.681Z,12.72
2017-08-20T01:21:40.909Z,12.78
2017-08-20T01:22:53.163Z,12.68
2017-08-20T01:24:05.735Z,12.76
2017-08-20T01:25:17.985Z,12.72
2017-08-20T01:26:30.510Z,12.69
2017-08-20T01:27:43.122Z,12.73
2017-08-20T01:28:55.675Z,12.76
2017-08-20T01:30:07.976Z,12.66
2017-08-20T01:31:20.315Z,12.68
2017-08-20T01:32:32.954Z,12.66
2017-08-20T01:33:45.563Z,12.63
2017-08-20T01:34:58.203Z,12.7
2017-08-20T01:36:10.461Z,12.66
2017-08-20T01:37:22.794Z,12.57
2017-08-20T01:38:35.341Z,12.58
2017-08-20T01:39:47.915Z,12.54
2017-08-20T01:41:00.143Z,12.58
2017-08-20T01:42:12.737Z,12.63
2017-08-20T01:43:25.323Z,12.65
2017-08-20T01:44:37.893Z,12.54
2017-08-20T01:45:50.207Z,12.61
2017-08-20T01:47:02.788Z,12.51
2017-08-20T01:48:15.383Z,12.55
2017-08-20T01:49:27.718Z,12.54
2017-08-20T01:50:39.983Z,12.5
2017-08-20T01:51:52.292Z,12.53
2017-08-20T01:53:04.841Z,12.54
2017-08-20T01:54:17.433Z,12.51
2017-08-20T01:55:30.227Z,12.37
2017-08-20T01:56:42.222Z,12.4
2017-08-20T01:57:54.504Z,12.47
2017-08-20T01:59:06.889Z,12.43
2017-08-20T02:00:19.490Z,12.4
2017-08-20T02:01:32.082Z,12.45
2017-08-20T02:02:44.639Z,12.44
2017-08-20T02:03:57.222Z,12.44
2017-08-20T02:05:09.842Z,12.43
2017-08-20T02:06:22.382Z,12.44
2017-08-20T02:07:34.677Z,12.45
2017-08-20T02:08:46.680Z,12.47
2017-08-20T02:09:58.976Z,12.39
2017-08-20T02:11:11.564Z,12.44
2017-08-20T02:12:24.166Z,12.4
2017-08-20T02:13:35.901Z,12.39
2017-08-20T02:14:48.440Z,12.35
2017-08-20T02:16:00.396Z,12.3
2017-08-20T02:17:12.967Z,12.36
2017-08-20T02:18:25.619Z,12.32
2017-08-20T02:19:38.277Z,12.35
2017-08-20T02:20:50.549Z,12.32
2017-08-20T02:22:03.214Z,12.36
2017-08-20T02:23:15.524Z,12.3
2017-08-20T02:24:28.078Z,12.35
2017-08-20T02:25:40.620Z,12.32
2017-08-20T02:26:53.184Z,12.32
2017-08-20T02:28:05.810Z,12.3
2017-08-20T02:29:18.371Z,12.26
2017-08-20T02:30:30.701Z,12.33
2017-08-20T02:31:42.663Z,12.26
2017-08-20T02:32:55.288Z,12.28
2017-08-20T02:34:07.317Z,12.32
2017-08-20T02:35:19.913Z,12.2
2017-08-20T02:36:32.158Z,12.25
2017-08-20T02:37:43.788Z,12.25
2017-08-20T02:38:56.672Z,12.25
2017-08-20T02:40:09.267Z,12.21
2017-08-20T02:41:21.840Z,12.21
2017-08-20T02:42:34.059Z,12.08
2017-08-20T02:43:46.005Z,12.08
2017-08-20T02:44:58.275Z,12.21
2017-08-20T02:46:09.926Z,12.08
2017-08-20T02:47:21.870Z,12.1
2017-08-20T02:48:34.117Z,12.02
2017-08-20T02:49:46.673Z,12.07
2017-08-20T02:50:58.986Z,12.02
2017-08-20T02:52:11.623Z,12.07
2017-08-20T02:53:23.905Z,11.99
2017-08-20T02:54:35.271Z,12
2017-08-20T02:55:47.870Z,11.99
2017-08-20T02:57:00.082Z,11.91
2017-08-20T02:58:12.053Z,11.81
2017-08-20T02:59:24.629Z,11.95
2017-08-20T03:00:37.184Z,11.89
2017-08-20T03:01:49.780Z,11.86
2017-08-20T03:03:02.412Z,11.8
2017-08-20T03:04:15.020Z,11.83
2017-08-20T03:05:27.624Z,11.85
2017-08-20T03:06:40.185Z,11.78
2017-08-20T03:07:52.478Z,11.77
2017-08-20T03:09:04.743Z,11.81
2017-08-20T03:10:17.407Z,11.81
2017-08-20T03:11:30.054Z,11.83
2017-08-20T03:12:42.591Z,11.7
2017-08-20T03:13:54.558Z,11.68
2017-08-20T03:15:07.134Z,11.81
2017-08-20T03:16:19.403Z,11.76
2017-08-20T03:17:32.014Z,11.74
2017-08-20T03:18:44.320Z,11.74
2017-08-20T03:19:56.549Z,11.74
2017-08-20T03:21:08.500Z,11.8
2017-08-20T03:22:21.088Z,11.68
2017-08-20T03:23:33.366Z,11.7
2017-08-20T03:24:45.660Z,11.71
2017-08-20T03:25:57.969Z,11.67
2017-08-20T03:27:10.283Z,11.76
2017-08-20T03:28:22.873Z,11.76
2017-08-20T03:29:35.400Z,11.63
2017-08-20T03:30:47.984Z,11.65
2017-08-20T03:32:00.512Z,11.68
2017-08-20T03:33:12.513Z,11.59
2017-08-20T03:34:25.089Z,11.67
2017-08-20T03:35:37.652Z,11.56
2017-08-20T03:36:50.235Z,11.58
2017-08-20T03:38:02.524Z,11.59
2017-08-20T03:39:14.497Z,11.58
2017-08-20T03:40:26.753Z,11.62
2017-08-20T03:41:39.038Z,11.58
2017-08-20T03:42:51.584Z,11.52
2017-08-20T03:44:04.172Z,11.53
2017-08-20T03:45:16.768Z,11.49
2017-08-20T03:46:29.334Z,11.52
2017-08-20T03:47:41.928Z,11.43
2017-08-20T03:48:54.606Z,11.55
2017-08-20T03:50:07.137Z,11.51
2017-08-20T03:51:19.384Z,11.43
2017-08-20T03:52:31.934Z,11.51
2017-08-20T03:53:43.919Z,11.44
2017-08-20T03:54:56.546Z,11.49
2017-08-20T03:56:08.804Z,11.4
2017-08-20T03:57:21.066Z,11.4
2017-08-20T03:58:33.627Z,11.41
2017-08-20T03:59:45.909Z,11.34
2017-08-20T04:00:58.513Z,11.35
2017-08-20T04:02:11.099Z,11.37
2017-08-20T04:03:23.365Z,11.37
2017-08-20T04:04:35.646Z,11.3
2017-08-20T04:05:47.975Z,11.2
2017-08-20T04:07:00.226Z,11.23
2017-08-20T04:08:12.853Z,11.23
2017-08-20T04:09:25.146Z,11.23
2017-08-20T04:10:37.416Z,11.26
2017-08-20T04:11:49.737Z,11.25
2017-08-20T04:13:02.355Z,11.22
2017-08-20T04:14:14.931Z,11.18
2017-08-20T04:15:27.473Z,11.18
2017-08-20T04:16:40.022Z,11.07
2017-08-20T04:17:52.607Z,11.1
2017-08-20T04:19:04.937Z,11.13
2017-08-20T04:20:17.504Z,11.15
2017-08-20T04:21:30.168Z,11.15
2017-08-20T04:22:42.470Z,11.12
2017-08-20T04:23:54.498Z,11.12
2017-08-20T04:25:06.515Z,11.08
2017-08-20T04:26:19.089Z,11.08
2017-08-20T04:27:31.715Z,11.12
2017-08-20T04:28:44.011Z,11.12
2017-08-20T04:29:56.649Z,11.08
2017-08-20T04:31:08.889Z,11.07
2017-08-20T04:32:21.504Z,11.08
2017-08-20T04:33:34.330Z,11.04
2017-08-20T04:34:46.622Z,11.08
2017-08-20T04:35:59.225Z,11.02
2017-08-20T04:37:11.187Z,11.02
2017-08-20T04:38:23.725Z,11.12
2017-08-20T04:39:36.022Z,11.04
2017-08-20T04:40:48.308Z,11.05
2017-08-20T04:42:00.633Z,11.01
2017-08-20T04:43:12.612Z,11.08
2017-08-20T04:44:25.267Z,11.01
2017-08-20T04:45:37.493Z,11.08
2017-08-20T04:46:49.784Z,10.98
2017-08-20T04:48:01.988Z,11.07
2017-08-20T04:49:14.854Z,11.07
2017-08-20T04:50:27.189Z,11.07
2017-08-20T04:51:38.859Z,11.05
2017-08-20T04:52:51.396Z,11.04
2017-08-20T04:54:03.376Z,11.08
2017-08-20T04:55:15.932Z,11.02
2017-08-20T04:56:28.480Z,11.07
2017-08-20T04:57:40.487Z,11.01
2017-08-20T04:58:53.058Z,11.05
2017-08-20T05:00:05.627Z,11.12
2017-08-20T05:01:17.986Z,11.08
2017-08-20T05:02:30.304Z,11.08
2017-08-20T05:03:42.839Z,11.1
2017-08-20T05:04:55.127Z,11.13
2017-08-20T05:06:07.706Z,11.15
2017-08-20T05:07:20.300Z,11.13
2017-08-20T05:08:32.887Z,11.1
2017-08-20T05:09:45.468Z,11.13
2017-08-20T05:10:58.075Z,11.16
2017-08-20T05:12:10.683Z,11.15
2017-08-20T05:13:22.641Z,11.18
2017-08-20T05:14:35.210Z,11.16
2017-08-20T05:15:47.514Z,11.15
2017-08-20T05:16:59.803Z,11.23
2017-08-20T05:18:12.020Z,11.26
2017-08-20T05:19:24.577Z,11.22
2017-08-20T05:20:36.861Z,11.3
2017-08-20T05:21:49.105Z,11.26
2017-08-20T05:23:01.413Z,11.31
2017-08-20T05:24:13.741Z,11.31
2017-08-20T05:25:26.024Z,11.33
2017-08-20T05:26:38.291Z,11.34
2017-08-20T05:27:50.237Z,11.38
2017-08-20T05:29:02.842Z,11.33
2017-08-20T05:30:15.175Z,11.37
2017-08-20T05:31:27.786Z,11.37
2017-08-20T05:32:40.111Z,11.34
2017-08-20T05:33:52.391Z,11.3
2017-08-20T05:35:04.959Z,11.43
2017-08-20T05:36:17.548Z,11.44
2017-08-20T05:37:29.833Z,11.43
2017-08-20T05:38:41.828Z,11.55
2017-08-20T05:39:54.421Z,11.53
2017-08-20T05:41:06.716Z,11.56
2017-08-20T05:42:19.263Z,11.6
2017-08-20T05:43:31.846Z,11.65
2017-08-20T05:44:44.167Z,11.7
2017-08-20T05:45:56.122Z,11.67
2017-08-20T05:47:08.742Z,11.68
2017-08-20T05:48:21.298Z,11.77
2017-08-20T05:49:33.542Z,11.8
2017-08-20T05:50:45.851Z,11.77
2017-08-20T05:51:58.473Z,11.85
2017-08-20T05:53:10.726Z,11.86
2017-08-20T05:54:23.033Z,11.88
2017-08-20T05:55:35.604Z,11.93
2017-08-20T05:56:47.649Z,11.89
2017-08-20T05:58:00.265Z,12.02
2017-08-20T05:59:12.524Z,12.07
2017-08-20T06:00:24.461Z,12.15
2017-08-20T06:01:36.787Z,12.2
2017-08-20T06:02:49.084Z,12.28
2017-08-20T06:04:00.730Z,12.3
2017-08-20T06:05:12.968Z,12.39
2017-08-20T06:06:25.534Z,12.53
2017-08-20T06:07:38.168Z,12.68
2017-08-20T06:08:50.756Z,12.68
2017-08-20T06:10:03.400Z,12.76
2017-08-20T06:11:15.981Z,12.75
2017-08-20T06:12:28.252Z,12.88
2017-08-20T06:13:40.795Z,12.94
2017-08-20T06:14:53.357Z,12.98
2017-08-20T06:16:05.310Z,13.03
2017-08-20T06:17:17.963Z,13.12
2017-08-20T06:18:30.232Z,13.11
2017-08-20T06:19:42.834Z,13.16
2017-08-20T06:20:55.473Z,13.16
2017-08-20T06:22:08.082Z,13.12
2017-08-20T06:23:20.113Z,13.24
2017-08-20T06:24:32.696Z,13.31
2017-08-20T06:25:44.691Z,13.46
2017-08-20T06:26:57.297Z,13.55
2017-08-20T06:28:09.613Z,13.82
2017-08-20T06:29:22.176Z,14.03
2017-08-20T06:30:34.458Z,14.38
2017-08-20T06:31:46.482Z,14.68
2017-08-20T06:32:58.784Z,15.07
2017-08-20T06:34:11.044Z,15.41
2017-08-20T06:35:23.621Z,15.76
2017-08-20T06:36:35.663Z,16.1
2017-08-20T06:37:48.160Z,16.25
2017-08-20T06:39:00.465Z,16.72
2017-08-20T06:40:12.742Z,17.1
2017-08-20T06:41:25.373Z,17.44
2017-08-20T06:42:37.390Z,17.73
2017-08-20T06:43:49.965Z,18.05
2017-08-20T06:45:02.210Z,18.34
2017-08-20T06:46:14.812Z,18.67
2017-08-20T06:47:27.416Z,18.96
2017-08-20T06:48:40.076Z,19.26
2017-08-20T06:49:52.681Z,19.45
2017-08-20T06:51:05.313Z,19.78
2017-08-20T06:52:17.907Z,20.02
2017-08-20T06:53:30.494Z,20.24
2017-08-20T06:54:43.105Z,20.46
2017-08-20T06:55:55.416Z,20.56
2017-08-20T06:57:07.741Z,20.77
2017-08-20T06:58:19.991Z,21.07
2017-08-20T06:59:32.571Z,21.25
2017-08-20T07:00:44.803Z,21.32
2017-08-20T07:01:57.375Z,21.63
2017-08-20T07:03:09.698Z,21.77
2017-08-20T07:04:22.336Z,22.06
2017-08-20T07:05:34.910Z,22.18
2017-08-20T07:06:47.232Z,22.38
2017-08-20T07:07:59.855Z,22.46
2017-08-20T07:09:12.180Z,22.67
2017-08-20T07:10:24.797Z,22.81
2017-08-20T07:11:37.403Z,23.02
2017-08-20T07:12:49.699Z,23.16
2017-08-20T07:14:01.703Z,23.39
2017-08-20T07:15:14.239Z,23.59
2017-08-20T07:16:26.797Z,23.66
2017-08-20T07:17:39.042Z,23.81
2017-08-20T07:18:51.665Z,23.77
2017-08-20T07:20:03.959Z,23.99
2017-08-20T07:21:16.535Z,24.07
2017-08-20T07:22:29.196Z,24.14
2017-08-20T07:23:41.467Z,24.09
2017-08-20T07:24:53.864Z,24.24
2017-08-20T07:26:06.495Z,24.36
2017-08-20T07:27:19.072Z,24.41
2017-08-20T07:28:31.629Z,24.63
2017-08-20T07:29:44.201Z,24.68
2017-08-20T07:30:56.194Z,24.81
2017-08-20T07:32:08.743Z,24.86
2017-08-20T07:33:21.314Z,25.03
2017-08-20T07:34:33.680Z,25.09
2017-08-20T07:35:46.291Z,25.07
2017-08-20T07:36:58.965Z,25.21
2017-08-20T07:38:11.269Z,25.31
2017-08-20T07:39:23.561Z,25.34
2017-08-20T07:40:36.159Z,25.33
2017-08-20T07:41:48.118Z,25.41
2017-08-20T07:43:00.375Z,25.56
2017-08-20T07:44:12.955Z,25.67
2017-08-20T07:45:25.606Z,25.63
2017-08-20T07:46:38.145Z,25.61
2017-08-20T07:47:50.430Z,25.67
2017-08-20T07:49:03.002Z,25.7
2017-08-20T07:50:15.219Z,25.78
2017-08-20T07:51:27.217Z,25.74
2017-08-20T07:52:39.500Z,25.85
2017-08-20T07:53:52.108Z,25.81
2017-08-20T07:55:04.465Z,25.98
2017-08-20T07:56:16.762Z,25.99
2017-08-20T07:57:29.076Z,25.95
2017-08-20T07:58:41.751Z,25.88
2017-08-20T07:59:53.703Z,25.98
2017-08-20T08:01:06.280Z,25.95
2017-08-20T08:02:18.563Z,26.06
2017-08-20T08:03:31.179Z,26.08
2017-08-20T08:04:43.484Z,26.26
2017-08-20T08:05:55.832Z,26.19
2017-08-20T08:07:08.439Z,26.27
2017-08-20T08:08:20.748Z,26.39
2017-08-20T08:09:33.337Z,26.44
2017-08-20T08:10:45.657Z,26.42
2017-08-20T08:11:57.695Z,26.39
2017-08-20T08:13:10.006Z,26.18
2017-08-20T08:14:22.690Z,26.08
2017-08-20T08:15:35.281Z,25.93
2017-08-20T08:16:47.555Z,25.85
2017-08-20T08:17:59.932Z,25.68
2017-08-20T08:19:12.534Z,25.4
2017-08-20T08:20:24.854Z,25.19
2017-08-20T08:21:37.140Z,25.01
2017-08-20T08:22:49.454Z,24.96
2017-08-20T08:24:01.169Z,24.81
2017-08-20T08:25:13.723Z,24.74
2017-08-20T08:26:25.708Z,24.41
2017-08-20T08:27:38.315Z,24.26
2017-08-20T08:28:50.913Z,24.11
2017-08-20T08:30:03.251Z,24.06
2017-08-20T08:31:15.226Z,23.85
2017-08-20T08:32:27.827Z,23.7
2017-08-20T08:33:40.439Z,23.39
2017-08-20T08:34:52.721Z,23.18
2017-08-20T08:36:05.353Z,23.01
2017-08-20T08:37:18.026Z,22.88
2017-08-20T08:38:30.629Z,22.8
2017-08-20T08:39:43.249Z,22.7
2017-08-20T08:40:55.813Z,22.55
2017-08-20T08:42:08.465Z,22.44
2017-08-20T08:43:21.340Z,22.28
2017-08-20T08:44:33.394Z,22.19
2017-08-20T08:45:45.632Z,22.14
2017-08-20T08:46:58.229Z,22
2017-08-20T08:48:10.568Z,21.97
2017-08-20T08:49:23.205Z,21.88
2017-08-20T08:50:35.807Z,21.77
2017-08-20T08:51:48.455Z,21.74
2017-08-20T08:53:01.069Z,21.66
2017-08-20T08:54:13.345Z,21.5
2017-08-20T08:55:25.678Z,21.54
2017-08-20T08:56:37.687Z,21.44
2017-08-20T08:57:49.930Z,21.37
2017-08-20T08:59:02.501Z,21.38
2017-08-20T09:00:15.142Z,21.37
2017-08-20T09:01:27.075Z,21.37
2017-08-20T09:02:39.416Z,21.35
2017-08-20T09:03:51.716Z,21.35
2017-08-20T09:05:04.008Z,21.28
2017-08-20T09:06:16.600Z,21.32
2017-08-20T09:07:28.589Z,21.51
2017-08-20T09:08:40.980Z,21.48
2017-08-20T09:09:53.533Z,21.56
2017-08-20T09:11:06.101Z,21.7
2017-08-20T09:12:18.703Z,21.81
2017-08-20T09:13:30.706Z,21.88
2017-08-20T09:14:43.057Z,21.94
2017-08-20T09:15:55.703Z,22.04
2017-08-20T09:17:08.349Z,22.01
2017-08-20T09:18:20.659Z,22.12
2017-08-20T09:19:32.609Z,22.03
2017-08-20T09:20:44.643Z,22
2017-08-20T09:21:57.207Z,21.91
2017-08-20T09:23:09.785Z,21.92
2017-08-20T09:24:21.995Z,21.74
2017-08-20T09:25:34.589Z,21.75
2017-08-20T09:26:46.584Z,21.62
2017-08-20T09:27:58.856Z,21.56
2017-08-20T09:29:11.141Z,21.43
2017-08-20T09:30:23.701Z,21.4
2017-08-20T09:31:36.281Z,21.33
2017-08-20T09:32:48.243Z,21.3
2017-08-20T09:34:00.620Z,21.2
2017-08-20T09:35:13.302Z,21.17
2017-08-20T09:36:25.942Z,21.13
2017-08-20T09:37:38.183Z,21.04
2017-08-20T09:38:50.115Z,20.92
2017-08-20T09:40:02.725Z,20.93
2017-08-20T09:41:15.293Z,21.08
2017-08-20T09:42:27.865Z,21.04
2017-08-20T09:43:40.209Z,21.17
2017-08-20T09:44:52.509Z,21.25
2017-08-20T09:46:04.205Z,21.22
2017-08-20T09:47:16.425Z,21.44
2017-08-20T09:48:29.018Z,21.45
2017-08-20T09:49:41.289Z,21.48
2017-08-20T09:50:53.554Z,21.54
2017-08-20T09:52:05.522Z,21.63
2017-08-20T09:53:17.804Z,21.6
2017-08-20T09:54:30.099Z,21.72
2017-08-20T09:55:42.371Z,21.75
2017-08-20T09:56:54.980Z,21.78
2017-08-20T09:58:07.608Z,21.8
2017-08-20T09:59:19.848Z,21.78
2017-08-20T10:00:32.447Z,21.78
2017-08-20T10:01:44.687Z,21.83
2017-08-20T10:02:56.673Z,21.91
2017-08-20T10:04:09.312Z,21.94
2017-08-20T10:05:21.260Z,22.01
2017-08-20T10:06:33.883Z,22.03
2017-08-20T10:07:46.552Z,22.14
2017-08-20T10:08:59.169Z,22.25
2017-08-20T10:10:11.441Z,22.31
2017-08-20T10:11:23.378Z,22.28
2017-08-20T10:12:35.643Z,22.38
2017-08-20T10:13:47.904Z,22.47
2017-08-20T10:15:00.547Z,22.56
2017-08-20T10:16:13.218Z,22.62
2017-08-20T10:17:25.766Z,22.52
2017-08-20T10:18:38.311Z,22.62
2017-08-20T10:19:50.879Z,22.56
2017-08-20T10:21:03.483Z,22.59
2017-08-20T10:22:15.764Z,22.58
2017-08-20T10:23:28.000Z,22.55
2017-08-20T10:24:40.253Z,22.46
2017-08-20T10:25:52.594Z,22.37
2017-08-20T10:27:05.282Z,22.34
2017-08-20T10:28:17.891Z,22.36
2017-08-20T10:29:29.862Z,22.43
2017-08-20T10:30:41.833Z,22.41
2017-08-20T10:31:54.414Z,22.47
2017-08-20T10:33:06.699Z,22.55
2017-08-20T10:34:19.294Z,22.61
2017-08-20T10:35:31.309Z,22.7
2017-08-20T10:36:44.005Z,22.88
2017-08-20T10:37:56.292Z,23.02
2017-08-20T10:39:08.927Z,23.14
2017-08-20T10:40:21.533Z,23.4
2017-08-20T10:41:33.551Z,23.59
2017-08-20T10:42:45.553Z,23.81
2017-08-20T10:43:58.160Z,24.04
2017-08-20T10:45:10.440Z,24.32
2017-08-20T10:46:22.709Z,24.58
2017-08-20T10:47:35.321Z,24.78
2017-08-20T10:48:47.043Z,24.93
2017-08-20T10:49:58.703Z,24.97
2017-08-20T10:51:11.308Z,24.99
2017-08-20T10:52:23.918Z,24.96
2017-08-20T10:53:36.212Z,24.81
2017-08-20T10:54:48.543Z,24.79
2017-08-20T10:56:01.200Z,24.66
2017-08-20T10:57:13.169Z,24.62
2017-08-20T10:58:25.801Z,24.43
2017-08-20T10:59:37.763Z,24.38
2017-08-20T11:00:50.095Z,24.24
2017-08-20T11:02:02.070Z,24.14
2017-08-20T11:03:14.625Z,24.09
2017-08-20T11:04:26.922Z,23.92
2017-08-20T11:05:39.560Z,23.77
2017-08-20T11:06:52.146Z,23.85
2017-08-20T11:08:04.772Z,23.82
2017-08-20T11:09:17.004Z,23.64
2017-08-20T11:10:29.289Z,23.66
2017-08-20T11:11:41.928Z,23.59
2017-08-20T11:12:54.579Z,23.7
2017-08-20T11:14:06.562Z,23.81
2017-08-20T11:15:18.528Z,23.71
2017-08-20T11:16:30.824Z,23.81
2017-08-20T11:17:43.450Z,23.81
2017-08-20T11:18:55.766Z,23.84
2017-08-20T11:20:08.612Z,23.92
2017-08-20T11:21:20.889Z,23.85
2017-08-20T11:22:33.462Z,23.89
2017-08-20T11:23:45.741Z,23.88
2017-08-20T11:24:58.055Z,23.96
2017-08-20T11:26:10.388Z,24.16
2017-08-20T11:27:22.411Z,24.25
2017-08-20T11:28:34.349Z,24.4
2017-08-20T11:29:46.945Z,24.62
2017-08-20T11:30:59.258Z,24.84
2017-08-20T11:32:11.547Z,25.19
2017-08-20T11:33:23.850Z,25.59
2017-08-20T11:34:36.161Z,25.95
2017-08-20T11:35:48.131Z,26.31
2017-08-20T11:37:00.083Z,26.74
2017-08-20T11:38:12.426Z,27.15
2017-08-20T11:39:24.394Z,27.5
2017-08-20T11:40:36.987Z,27.68
2017-08-20T11:41:49.576Z,28.04
2017-08-20T11:43:02.196Z,28.33
2017-08-20T11:44:14.167Z,28.6
2017-08-20T11:45:26.450Z,28.84
2017-08-20T11:46:38.694Z,29.21
2017-08-20T11:47:50.989Z,29.46
2017-08-20T11:49:03.290Z,29.46
2017-08-20T11:50:15.955Z,29.4
2017-08-20T11:51:27.948Z,29.37
2017-08-20T11:52:40.337Z,29.4
2017-08-20T11:53:52.321Z,29.42
2017-08-20T11:55:04.683Z,29.39
2017-08-20T11:56:17.361Z,29.47
2017-08-20T11:57:30.019Z,29.34
2017-08-20T11:58:42.290Z,29.35
2017-08-20T11:59:53.972Z,29.42
2017-08-20T12:01:06.556Z,29.65
2017-08-20T12:02:18.933Z,29.58
2017-08-20T12:03:31.210Z,29.74
2017-08-20T12:04:43.498Z,29.76
2017-08-20T12:05:55.809Z,30.02
2017-08-20T12:07:07.465Z,30.31
2017-08-20T12:08:19.780Z,30.4
2017-08-20T12:09:32.030Z,30.71
2017-08-20T12:10:44.027Z,30.92
2017-08-20T12:11:56.017Z,31.04
2017-08-20T12:13:08.574Z,31.2
2017-08-20T12:14:21.158Z,31.17
2017-08-20T12:15:33.730Z,31.25
2017-08-20T12:16:46.016Z,31.29
2017-08-20T12:17:58.629Z,31.35
2017-08-20T12:19:10.901Z,31.42
2017-08-20T12:20:22.886Z,31.47
2017-08-20T12:21:35.193Z,31.57
2017-08-20T12:22:47.540Z,31.44
2017-08-20T12:23:59.860Z,31.3
2017-08-20T12:25:11.835Z,31.32
2017-08-20T12:26:24.099Z,31.35
2017-08-20T12:27:36.684Z,31.32
2017-08-20T12:28:48.991Z,31.25
2017-08-20T12:30:01.659Z,31.2
2017-08-20T12:31:13.983Z,31.22
2017-08-20T12:32:26.203Z,31.1
2017-08-20T12:33:37.631Z,31.1
2017-08-20T12:34:49.922Z,31.17
2017-08-20T12:36:02.555Z,31.28
2017-08-20T12:37:14.502Z,31.41
2017-08-20T12:38:26.439Z,31.48
2017-08-20T12:39:38.449Z,31.55
2017-08-20T12:40:50.762Z,31.51
2017-08-20T12:42:03.040Z,31.52
2017-08-20T12:43:15.386Z,31.54
2017-08-20T12:44:28.010Z,31.51
2017-08-20T12:45:40.351Z,31.64
2017-08-20T12:46:52.910Z,31.66
2017-08-20T12:48:05.197Z,31.7
2017-08-20T12:49:17.514Z,31.73
2017-08-20T12:50:29.524Z,31.81
2017-08-20T12:51:42.162Z,31.87
2017-08-20T12:52:54.703Z,31.64
2017-08-20T12:54:07.296Z,31.54
2017-08-20T12:55:19.585Z,31.37
2017-08-20T12:56:31.882Z,31.18
2017-08-20T12:57:44.462Z,30.95
2017-08-20T12:58:57.047Z,30.76
2017-08-20T13:00:09.700Z,30.44
2017-08-20T13:01:21.981Z,30.27
2017-08-20T13:02:34.324Z,29.95
2017-08-20T13:03:46.305Z,29.76
2017-08-20T13:04:58.897Z,29.47
2017-08-20T13:06:11.205Z,29.03
2017-08-20T13:07:23.803Z,28.72
2017-08-20T13:08:36.454Z,28.41
2017-08-20T13:09:48.776Z,28.16
2017-08-20T13:11:01.329Z,27.76
2017-08-20T13:12:14.035Z,27.64
2017-08-20T13:13:26.319Z,27.37
2017-08-20T13:14:38.954Z,27.08
2017-08-20T13:15:50.380Z,26.83
2017-08-20T13:17:02.697Z,26.61
2017-08-20T13:18:15.027Z,26.41
2017-08-20T13:19:27.334Z,26.24
2017-08-20T13:20:39.690Z,25.98
2017-08-20T13:21:52.322Z,25.86
2017-08-20T13:23:04.549Z,25.62
2017-08-20T13:24:16.853Z,25.44
2017-08-20T13:25:29.192Z,25.26
2017-08-20T13:26:41.848Z,25.11
2017-08-20T13:27:54.461Z,24.85
2017-08-20T13:29:05.880Z,24.65
2017-08-20T13:30:18.182Z,24.44
2017-08-20T13:31:30.198Z,24.41
2017-08-20T13:32:42.514Z,24.14
2017-08-20T13:33:54.793Z,24.1
2017-08-20T13:35:07.157Z,23.95
2017-08-20T13:36:19.458Z,23.81
2017-08-20T13:37:31.791Z,23.73
2017-08-20T13:38:44.137Z,23.63
2017-08-20T13:39:56.455Z,23.45
2017-08-20T13:41:09.050Z,23.36
2017-08-20T13:42:21.636Z,23.28
2017-08-20T13:43:34.256Z,23.16
2017-08-20T13:44:46.606Z,22.99
2017-08-20T13:45:58.920Z,22.92
2017-08-20T13:47:11.553Z,22.96
2017-08-20T13:48:23.543Z,22.74
2017-08-20T13:49:35.772Z,22.77
2017-08-20T13:50:48.035Z,22.67
2017-08-20T13:52:00.605Z,22.56
2017-08-20T13:53:12.620Z,22.53
2017-08-20T13:54:24.957Z,22.53
2017-08-20T13:55:37.188Z,22.43
2017-08-20T13:56:49.204Z,22.38
2017-08-20T13:58:01.886Z,22.3
2017-08-20T13:59:14.412Z,22.21
2017-08-20T14:00:26.950Z,22.26
2017-08-20T14:01:39.556Z,22.21
2017-08-20T14:02:52.230Z,22.01
2017-08-20T14:04:04.812Z,22.03
2017-08-20T14:05:17.065Z,22.07
2017-08-20T14:06:29.313Z,22.04
2017-08-20T14:07:41.935Z,21.94
2017-08-20T14:08:54.254Z,21.99
2017-08-20T14:10:06.572Z,21.88
2017-08-20T14:11:19.078Z,21.83
2017-08-20T14:12:31.612Z,21.81
2017-08-20T14:13:43.636Z,21.7
2017-08-20T14:14:55.909Z,21.78
2017-08-20T14:16:08.153Z,21.7
2017-08-20T14:17:20.694Z,21.7
2017-08-20T14:18:33.002Z,21.68
2017-08-20T14:19:44.712Z,21.66
2017-08-20T14:20:57.004Z,21.62
2017-08-20T14:22:09.554Z,21.62
2017-08-20T14:23:21.523Z,21.59
2017-08-20T14:24:33.847Z,21.56
2017-08-20T14:25:46.115Z,21.47
2017-08-20T14:26:58.361Z,21.44
2017-08-20T14:28:10.630Z,21.44
2017-08-20T14:29:23.329Z,21.33
2017-08-20T14:30:35.916Z,21.32
2017-08-20T14:31:48.217Z,21.29
2017-08-20T14:33:00.781Z,21.3
2017-08-20T14:34:13.368Z,21.33
2017-08-20T14:35:25.991Z,21.28
2017-08-20T14:36:38.276Z,21.32
2017-08-20T14:37:50.572Z,21.32
2017-08-20T14:39:02.229Z,21.33
2017-08-20T14:40:14.539Z,21.37
2017-08-20T14:41:26.815Z,21.41
2017-08-20T14:42:39.456Z,21.44
2017-08-20T14:43:51.485Z,21.41
2017-08-20T14:45:03.444Z,21.56
2017-08-20T14:46:15.141Z,21.53
2017-08-20T14:47:27.681Z,21.63
2017-08-20T14:48:40.269Z,21.65
2017-08-20T14:49:52.296Z,21.7
2017-08-20T14:51:04.536Z,21.8
2017-08-20T14:52:17.145Z,21.85
2017-08-20T14:53:29.454Z,21.91
2017-08-20T14:54:41.767Z,22.01
2017-08-20T14:55:54.001Z,21.96
2017-08-20T14:57:06.263Z,22.04
2017-08-20T14:58:18.605Z,22.04
2017-08-20T14:59:30.901Z,22.06
2017-08-20T15:00:43.562Z,22.01
2017-08-20T15:01:55.538Z,22.08
2017-08-20T15:03:07.573Z,22.01
2017-08-20T15:04:19.887Z,21.94
2017-08-20T15:05:32.492Z,21.97
2017-08-20T15:06:44.793Z,21.92
2017-08-20T15:07:57.374Z,21.84
2017-08-20T15:09:09.665Z,21.85
2017-08-20T15:10:21.630Z,21.75
2017-08-20T15:11:34.176Z,21.74
2017-08-20T15:12:46.753Z,21.63
2017-08-20T15:13:58.994Z,21.63
2017-08-20T15:15:11.561Z,21.54
2017-08-20T15:16:23.961Z,21.56
2017-08-20T15:17:35.965Z,21.43
2017-08-20T15:18:48.779Z,21.53
2017-08-20T15:20:01.422Z,21.53
2017-08-20T15:21:13.669Z,21.56
2017-08-20T15:22:26.248Z,21.53
2017-08-20T15:23:37.879Z,21.65
2017-08-20T15:24:50.179Z,21.65
2017-08-20T15:26:02.440Z,21.78
2017-08-20T15:27:14.729Z,21.8
2017-08-20T15:28:27.400Z,21.84
2017-08-20T15:29:39.696Z,21.84
2017-08-20T15:30:51.982Z,21.85
2017-08-20T15:32:04.530Z,21.84
2017-08-20T15:33:17.152Z,21.74
2017-08-20T15:34:29.735Z,21.83
2017-08-20T15:35:42.039Z,21.74